sensor_id;sensor_type;location;lat;lon;timestamp;pressure;altitude;pressure_sealevel;temperature
49154;BMP280;49455;52.252;9.124;2023-07-28T08:38:55;99712.81;;;20.81
49154;BMP280;49455;52.252;9.124;2023-07-28T08:43:55;99706.19;;;20.73
49154;BMP280;49455;52.252;9.124;2023-07-28T08:48:56;99842.34;;;21.07
49154;BMP280;49455;52.252;9.124;2023-07-28T08:53:56;99689.41;;;21.12
49154;BMP280;49455;52.252;9.124;2023-07-28T09:52:18;99691.88;;;22.31
49154;BMP280;49455;52.252;9.124;2023-07-28T09:57:20;99671.72;;;22.68
49154;BMP280;49455;52.252;9.124;2023-07-28T10:02:21;99671.00;;;22.78
49154;BMP280;49455;52.252;9.124;2023-07-28T10:07:22;99673.81;;;23.01
49154;BMP280;49455;52.252;9.124;2023-07-28T10:12:25;99676.63;;;23.23
49154;BMP280;49455;52.252;9.124;2023-07-28T10:17:34;99674.31;;;22.99
49154;BMP280;49455;52.252;9.124;2023-07-28T10:22:44;99679.66;;;23.59
49154;BMP280;49455;52.252;9.124;2023-07-28T10:27:45;99631.88;;;23.30
49154;BMP280;49455;52.252;9.124;2023-07-28T10:32:48;99616.53;;;23.35
49154;BMP280;49455;52.252;9.124;2023-07-28T10:37:49;99615.31;;;23.25
49154;BMP280;49455;52.252;9.124;2023-07-28T10:42:51;99611.03;;;23.52
49154;BMP280;49455;52.252;9.124;2023-07-28T10:47:52;99593.69;;;23.34
49154;BMP280;49455;52.252;9.124;2023-07-28T10:52:52;99616.53;;;23.68
49154;BMP280;49455;52.252;9.124;2023-07-28T10:57:54;99596.44;;;23.68
49154;BMP280;49455;52.252;9.124;2023-07-28T11:02:55;99752.84;;;23.86
49154;BMP280;49455;52.252;9.124;2023-07-28T11:07:57;99631.91;;;24.39
49154;BMP280;49455;52.252;9.124;2023-07-28T11:13:00;99599.78;;;24.19
49154;BMP280;49455;52.252;9.124;2023-07-28T11:18:03;99576.03;;;24.35
49154;BMP280;49455;52.252;9.124;2023-07-28T11:23:04;99592.91;;;24.78
49154;BMP280;49455;52.252;9.124;2023-07-28T11:28:05;99596.50;;;25.03
49154;BMP280;49455;52.252;9.124;2023-07-28T11:33:08;99624.75;;;25.32
49154;BMP280;49455;52.252;9.124;2023-07-28T11:38:09;99611.91;;;25.77
49154;BMP280;49455;52.252;9.124;2023-07-28T11:43:10;99561.28;;;24.92
49154;BMP280;49455;52.252;9.124;2023-07-28T11:48:10;99505.31;;;25.24
49154;BMP280;49455;52.252;9.124;2023-07-28T11:53:11;99720.41;;;25.79
49154;BMP280;49455;52.252;9.124;2023-07-28T11:58:11;99452.94;;;25.39
49154;BMP280;49455;52.252;9.124;2023-07-28T12:03:12;99334.28;;;25.51
49154;BMP280;49455;52.252;9.124;2023-07-28T12:08:13;99345.38;;;25.13
49154;BMP280;49455;52.252;9.124;2023-07-28T12:13:13;99328.00;;;25.82
49154;BMP280;49455;52.252;9.124;2023-07-28T12:18:15;99406.06;;;26.24
49154;BMP280;49455;52.252;9.124;2023-07-28T12:23:20;99440.16;;;25.93
49154;BMP280;49455;52.252;9.124;2023-07-28T12:28:21;99423.47;;;25.17
49154;BMP280;49455;52.252;9.124;2023-07-28T12:33:22;99415.19;;;25.55
49154;BMP280;49455;52.252;9.124;2023-07-28T12:38:24;99443.81;;;26.33
49154;BMP280;49455;52.252;9.124;2023-07-28T12:43:25;99470.22;;;26.40
49154;BMP280;49455;52.252;9.124;2023-07-28T12:48:25;99432.31;;;25.91
49154;BMP280;49455;52.252;9.124;2023-07-28T12:53:25;99425.03;;;26.07
49154;BMP280;49455;52.252;9.124;2023-07-28T12:58:26;99399.94;;;25.43
49154;BMP280;49455;52.252;9.124;2023-07-28T13:03:26;99469.63;;;26.47
49154;BMP280;49455;52.252;9.124;2023-07-28T13:08:27;99457.97;;;26.61
49154;BMP280;49455;52.252;9.124;2023-07-28T13:13:28;99364.56;;;25.68
49154;BMP280;49455;52.252;9.124;2023-07-28T13:18:29;99369.78;;;26.35
49154;BMP280;49455;52.252;9.124;2023-07-28T13:23:29;99330.00;;;26.14
49154;BMP280;49455;52.252;9.124;2023-07-28T13:28:30;99317.81;;;26.04
49154;BMP280;49455;52.252;9.124;2023-07-28T13:33:31;99368.72;;;26.52
49154;BMP280;49455;52.252;9.124;2023-07-28T13:38:31;99303.84;;;26.89
49154;BMP280;49455;52.252;9.124;2023-07-28T13:43:32;99275.28;;;26.88
49154;BMP280;49455;52.252;9.124;2023-07-28T13:48:33;99267.59;;;27.57
49154;BMP280;49455;52.252;9.124;2023-07-28T13:53:34;99310.00;;;27.08
49154;BMP280;49455;52.252;9.124;2023-07-28T13:58:34;99810.00;;;27.29
49154;BMP280;49455;52.252;9.124;2023-07-28T14:03:34;99123.78;;;27.81
49154;BMP280;49455;52.252;9.124;2023-07-28T14:08:35;98974.22;;;27.30
49154;BMP280;49455;52.252;9.124;2023-07-28T14:13:35;99153.09;;;27.25
49154;BMP280;49455;52.252;9.124;2023-07-28T14:18:35;99426.34;;;26.64
49154;BMP280;49455;52.252;9.124;2023-07-28T14:23:36;99231.06;;;26.77
49154;BMP280;49455;52.252;9.124;2023-07-28T14:28:36;99260.03;;;27.37
49154;BMP280;49455;52.252;9.124;2023-07-28T14:33:37;99173.63;;;27.42
49154;BMP280;49455;52.252;9.124;2023-07-28T14:38:37;99155.44;;;27.70
49154;BMP280;49455;52.252;9.124;2023-07-28T14:43:37;99152.09;;;26.73
49154;BMP280;49455;52.252;9.124;2023-07-28T14:48:38;99129.19;;;27.29
49154;BMP280;49455;52.252;9.124;2023-07-28T14:53:39;99131.63;;;27.90
49154;BMP280;49455;52.252;9.124;2023-07-28T14:58:39;99029.81;;;28.48
49154;BMP280;49455;52.252;9.124;2023-07-28T15:03:40;99186.59;;;28.33
